sensor_id;sensor_type;location;lat;lon;timestamp;pressure;altitude;pressure_sealevel;temperature;humidity
76283;BME280;65095;50.802;0.268;2022-11-11T00:01:00;102510.16;;;21.97;38.86
76283;BME280;65095;50.802;0.268;2022-11-11T00:03:25;102508.93;;;21.59;39.67
76283;BME280;65095;50.802;0.268;2022-11-11T00:05:50;102507.25;;;22.02;39.08
76283;BME280;65095;50.802;0.268;2022-11-11T00:08:16;102509.12;;;21.97;39.37
76283;BME280;65095;50.802;0.268;2022-11-11T00:10:41;102509.64;;;21.51;39.38
76283;BME280;65095;50.802;0.268;2022-11-11T00:13:07;102498.55;;;21.87;39.07
76283;BME280;65095;50.802;0.268;2022-11-11T00:15:36;102505.72;;;22.33;38.92
76283;BME280;65095;50.802;0.268;2022-11-11T00:17:58;102507.34;;;22.67;37.90
76283;BME280;65095;50.802;0.268;2022-11-11T00:20:23;102509.03;;;22.70;37.85
76283;BME280;65095;50.802;0.268;2022-11-11T00:22:48;102505.98;;;22.87;37.71
76283;BME280;65095;50.802;0.268;2022-11-11T00:25:16;102502.92;;;22.39;38.26
76283;BME280;65095;50.802;0.268;2022-11-11T00:27:40;102504.82;;;22.84;37.59
76283;BME280;65095;50.802;0.268;2022-11-11T00:30:07;102499.85;;;22.77;38.11
76283;BME280;65095;50.802;0.268;2022-11-11T00:32:31;102500.20;;;22.64;37.89
76283;BME280;65095;50.802;0.268;2022-11-11T00:34:58;102501.99;;;22.72;37.89
76283;BME280;65095;50.802;0.268;2022-11-11T00:37:22;102496.01;;;22.89;37.65
76283;BME280;65095;50.802;0.268;2022-11-11T00:39:48;102494.17;;;22.48;38.57
76283;BME280;65095;50.802;0.268;2022-11-11T00:42:13;102498.11;;;22.40;38.27
76283;BME280;65095;50.802;0.268;2022-11-11T00:44:39;102500.02;;;22.25;38.47
76283;BME280;65095;50.802;0.268;2022-11-11T00:47:05;102499.56;;;22.97;37.52
76283;BME280;65095;50.802;0.268;2022-11-11T00:49:30;102507.44;;;23.25;37.44
76283;BME280;65095;50.802;0.268;2022-11-11T00:51:56;102505.09;;;22.12;38.47
76283;BME280;65095;50.802;0.268;2022-11-11T00:54:21;102506.04;;;22.69;38.11
76283;BME280;65095;50.802;0.268;2022-11-11T00:56:46;102508.09;;;23.21;37.60
76283;BME280;65095;50.802;0.268;2022-11-11T00:59:11;102498.47;;;22.79;37.87
76283;BME280;65095;50.802;0.268;2022-11-11T01:01:37;102508.86;;;22.71;37.98
76283;BME280;65095;50.802;0.268;2022-11-11T01:04:03;102507.74;;;22.94;37.38
76283;BME280;65095;50.802;0.268;2022-11-11T01:06:28;102503.07;;;22.85;37.79
76283;BME280;65095;50.802;0.268;2022-11-11T01:08:54;102505.60;;;22.83;38.22
76283;BME280;65095;50.802;0.268;2022-11-11T01:11:21;102512.57;;;22.81;37.78
76283;BME280;65095;50.802;0.268;2022-11-11T01:13:45;102510.16;;;23.00;37.62
76283;BME280;65095;50.802;0.268;2022-11-11T01:16:13;102519.66;;;22.69;37.80
76283;BME280;65095;50.802;0.268;2022-11-11T01:18:36;102517.44;;;23.17;37.62
76283;BME280;65095;50.802;0.268;2022-11-11T01:21:04;102517.13;;;23.32;37.71
76283;BME280;65095;50.802;0.268;2022-11-11T01:23:28;102520.46;;;22.81;37.73
76283;BME280;65095;50.802;0.268;2022-11-11T01:25:53;102515.36;;;23.31;37.42
76283;BME280;65095;50.802;0.268;2022-11-11T01:28:18;102516.14;;;22.89;37.61
76283;BME280;65095;50.802;0.268;2022-11-11T01:30:43;102515.71;;;23.08;37.43
76283;BME280;65095;50.802;0.268;2022-11-11T01:33:10;102514.36;;;22.67;37.98
76283;BME280;65095;50.802;0.268;2022-11-11T01:35:37;102515.68;;;22.92;37.72
76283;BME280;65095;50.802;0.268;2022-11-11T01:38:00;102515.32;;;22.23;38.41
76283;BME280;65095;50.802;0.268;2022-11-11T01:40:26;102516.54;;;22.50;38.26
76283;BME280;65095;50.802;0.268;2022-11-11T01:42:53;102517.28;;;22.82;37.69
76283;BME280;65095;50.802;0.268;2022-11-11T01:47:43;102527.21;;;22.53;38.03
76283;BME280;65095;50.802;0.268;2022-11-11T01:50:09;102519.03;;;22.79;37.70
76283;BME280;65095;50.802;0.268;2022-11-11T01:52:38;102512.46;;;22.30;38.35
76283;BME280;65095;50.802;0.268;2022-11-11T01:55:02;102513.49;;;22.54;37.99
76283;BME280;65095;50.802;0.268;2022-11-11T01:57:31;102512.17;;;22.71;38.17
76283;BME280;65095;50.802;0.268;2022-11-11T01:59:54;102510.53;;;23.13;37.28
76283;BME280;65095;50.802;0.268;2022-11-11T02:02:19;102509.14;;;22.98;37.59
76283;BME280;65095;50.802;0.268;2022-11-11T02:04:42;102509.03;;;22.71;37.82
76283;BME280;65095;50.802;0.268;2022-11-11T02:07:08;102509.67;;;22.73;37.94
76283;BME280;65095;50.802;0.268;2022-11-11T02:09:32;102509.14;;;21.70;39.49
76283;BME280;65095;50.802;0.268;2022-11-11T02:11:59;102512.73;;;21.74;39.44
76283;BME280;65095;50.802;0.268;2022-11-11T02:14:22;102515.14;;;21.44;39.63
76283;BME280;65095;50.802;0.268;2022-11-11T02:16:48;102517.30;;;21.36;40.15
76283;BME280;65095;50.802;0.268;2022-11-11T02:19:15;102514.90;;;21.16;40.38
76283;BME280;65095;50.802;0.268;2022-11-11T02:21:44;102516.19;;;21.78;39.36
76283;BME280;65095;50.802;0.268;2022-11-11T02:24:06;102516.65;;;22.93;37.95
76283;BME280;65095;50.802;0.268;2022-11-11T02:26:30;102510.64;;;23.27;37.34
76283;BME280;65095;50.802;0.268;2022-11-11T02:28:55;102515.70;;;23.31;37.22
76283;BME280;65095;50.802;0.268;2022-11-11T02:31:26;102513.18;;;23.41;37.14
76283;BME280;65095;50.802;0.268;2022-11-11T02:33:46;102523.44;;;23.32;37.29
76283;BME280;65095;50.802;0.268;2022-11-11T02:36:14;102521.12;;;23.32;37.53
76283;BME280;65095;50.802;0.268;2022-11-11T02:38:37;102519.28;;;22.98;37.79
76283;BME280;65095;50.802;0.268;2022-11-11T02:41:02;102520.70;;;23.18;37.42
76283;BME280;65095;50.802;0.268;2022-11-11T02:43:28;102514.50;;;21.55;39.46
76283;BME280;65095;50.802;0.268;2022-11-11T02:45:53;102514.76;;;22.13;38.80
76283;BME280;65095;50.802;0.268;2022-11-11T02:48:18;102512.57;;;23.16;37.48
76283;BME280;65095;50.802;0.268;2022-11-11T02:50:44;102507.47;;;22.99;37.55
76283;BME280;65095;50.802;0.268;2022-11-11T02:53:10;102503.84;;;23.37;37.46
76283;BME280;65095;50.802;0.268;2022-11-11T02:55:35;102507.46;;;22.87;37.68
76283;BME280;65095;50.802;0.268;2022-11-11T02:58:00;102500.79;;;23.67;37.40
76283;BME280;65095;50.802;0.268;2022-11-11T03:00:26;102503.37;;;23.29;37.32
76283;BME280;65095;50.802;0.268;2022-11-11T03:02:51;102506.73;;;22.86;37.89
76283;BME280;65095;50.802;0.268;2022-11-11T03:05:17;102502.68;;;23.02;37.35
76283;BME280;65095;50.802;0.268;2022-11-11T03:07:42;102498.68;;;23.06;37.65
76283;BME280;65095;50.802;0.268;2022-11-11T03:18:28;102513.93;;;23.22;38.51
76283;BME280;65095;50.802;0.268;2022-11-11T03:20:53;102506.01;;;24.40;35.88
76283;BME280;65095;50.802;0.268;2022-11-11T03:23:19;102504.19;;;24.99;34.50
76283;BME280;65095;50.802;0.268;2022-11-11T03:25:46;102502.54;;;25.26;33.59
76283;BME280;65095;50.802;0.268;2022-11-11T03:28:12;102503.42;;;25.92;32.99
76283;BME280;65095;50.802;0.268;2022-11-11T03:30:35;102505.33;;;26.25;32.60
76283;BME280;65095;50.802;0.268;2022-11-11T03:33:00;102507.07;;;25.74;32.31
76283;BME280;65095;50.802;0.268;2022-11-11T03:35:25;102506.37;;;26.09;32.14
76283;BME280;65095;50.802;0.268;2022-11-11T03:37:50;102511.83;;;26.25;32.01
76283;BME280;65095;50.802;0.268;2022-11-11T03:40:15;102513.18;;;26.41;31.80
76283;BME280;65095;50.802;0.268;2022-11-11T03:42:41;102510.25;;;26.53;31.64
76283;BME280;65095;50.802;0.268;2022-11-11T03:45:07;102518.10;;;26.52;31.59
76283;BME280;65095;50.802;0.268;2022-11-11T03:47:32;102514.73;;;26.51;31.62
76283;BME280;65095;50.802;0.268;2022-11-11T03:49:57;102518.02;;;26.54;31.66
76283;BME280;65095;50.802;0.268;2022-11-11T03:52:23;102520.60;;;26.58;31.64
76283;BME280;65095;50.802;0.268;2022-11-11T03:54:48;102517.99;;;26.59;31.61
76283;BME280;65095;50.802;0.268;2022-11-11T03:57:13;102516.93;;;26.51;31.59
76283;BME280;65095;50.802;0.268;2022-11-11T03:59:39;102517.55;;;26.51;31.56
76283;BME280;65095;50.802;0.268;2022-11-11T04:02:05;102517.65;;;26.53;31.57
76283;BME280;65095;50.802;0.268;2022-11-11T04:04:30;102517.07;;;26.51;31.53
76283;BME280;65095;50.802;0.268;2022-11-11T04:06:55;102508.37;;;26.16;31.46
